Airfield :
LOGIN :

Register | Disclaimer

   EN    FR    IT 

 










Legend :    VFR   Marginal VFR   IFR   Intensive IFR   Very Intensive IFR
Visi :
Ceiling :
>= 8 km
>= 3000ft
5 to 8 km
1000 to 3000 ft
1500m to 5 km
500 to 1000 ft
800 to 1500m
200 to 500 ft
< 800m
< 200 ft
Symbols :   Thunderstorms  Fog  Heavy snow  Heavy precipitations  Wind > 20 kt
SIGMETs :     Misc.  Thunderstorms  Icing  Turbulence  Mountain Waves  Volcanic Ashes







- Airport Elevation : 1766 ft


ETHL - Laupheim AB

CURRENT METAR :
  • 251420Z 27008KT 8000 -RA FEW030 BKN042 10/08 Q1007 BLU BLU TEMPO WHT

EXPIRED METARs :
  • 251320Z 19006KT 9999 -SHRA SCT030TCU BKN050 09/07 Q1007 RETS BLU BLU TEMPO WHT
  • 251312Z 22007KT 9000 -SHRA SCT030CB BKN050 10/06 Q1007 RETS BLU BLU TEMPO WHT
  • 251301Z 22007KT 6000 -TSRA SCT030CB BKN050 11/08 Q1007 WHT BLU TEMPO WHT
  • 251244Z 18005KT 9999 VCTS SCT032CB BKN050 12/08 Q1007 BLU BLU BECMG WHT
  • 251220Z 17005KT 9999 -SHRA SCT032TCU BKN050 12/08 Q1007 BLU BLU BECMG WHT

TAF TAF ETHL
Valid from the 25 at 14:00 until the 25 at 23:00 UTC


251315Z 2514/2523 28008KT 9000 -RA SCT020 BKN030
PROB30 2514/2516 30010G20KT 7000 -TSRA SCT015CB BKN025
TEMPO 2515/2523 33012KT 6000 RA BKN010 BKN015
No reported NOTAMs for that airfield.
1 SIGMET reported for the München FIR (EDMM) :
 
Embedded thunderstorms
EDMM SIGMET 1 VALID 251256/251500 EDZM
EDMM MUNCHEN FIR EMBD TS OBS S OF N49 AND W OF E011 TOP FL240 STNR WKN=



MET'MAP, your aeronautical weather chart ! - Copyright ORBIFLY December 2007 - Disclaimer

ORBIFLY MET'MAP TEAM :

Programming & Development : Alexandra Zaïnal
Concept & Development : Baudouin d'Aumeries
Co-Development & Prog : Marc-Olivier Méhu
Technical & hardware support : Manuel Goepfert

Contact : metmap@orbifly.com




SOURCES & CREDITS :

   NOAA